createdAt,value
2022-08-24T00:01:52.017Z,9.32
2022-08-24T00:03:57.829Z,9.43
2022-08-24T00:06:11.128Z,9.60
2022-08-24T00:08:13.764Z,9.55
2022-08-24T00:10:31.044Z,9.90
2022-08-24T00:12:42.372Z,10.68
2022-08-24T00:14:45.378Z,9.70
2022-08-24T00:17:21.864Z,10.50
2022-08-24T00:19:24.583Z,16.33
2022-08-24T00:21:27.270Z,18.88
2022-08-24T00:23:30.097Z,19.90
2022-08-24T00:25:41.161Z,22.17
2022-08-24T00:27:43.528Z,22.30
2022-08-24T00:29:46.084Z,23.17
2022-08-24T00:32:03.427Z,22.98
2022-08-24T00:34:12.975Z,19.17
2022-08-24T00:36:15.381Z,19.05
2022-08-24T00:38:17.603Z,18.05
2022-08-24T00:40:43.463Z,18.70
2022-08-24T00:42:45.909Z,17.40
2022-08-24T00:44:49.511Z,18.23
2022-08-24T00:47:02.427Z,18.17
2022-08-24T00:49:12.413Z,18.15
2022-08-24T00:51:21.349Z,18.48
2022-08-24T00:53:29.656Z,20.67
2022-08-24T00:55:46.786Z,21.60
2022-08-24T00:57:53.591Z,20.48
2022-08-24T01:00:19.977Z,23.60
2022-08-24T01:02:29.964Z,22.33
2022-08-24T01:04:37.844Z,20.83
2022-08-24T01:06:53.721Z,21.50
2022-08-24T01:08:59.301Z,22.65
2022-08-24T01:11:09.237Z,22.80
2022-08-24T01:13:12.408Z,23.63
2022-08-24T01:15:15.955Z,23.17
2022-08-24T01:17:38.988Z,23.92
2022-08-24T01:19:45.741Z,21.30
2022-08-24T01:21:54.378Z,22.65
2022-08-24T01:24:01.723Z,22.90
2022-08-24T01:26:03.706Z,22.77
2022-08-24T01:28:10.931Z,23.33
2022-08-24T01:30:14.527Z,23.67
2022-08-24T01:32:23.209Z,21.67
2022-08-24T01:34:25.622Z,21.15
2022-08-24T01:36:37.115Z,21.77
2022-08-24T01:38:39.487Z,21.90
2022-08-24T01:40:49.639Z,22.48
2022-08-24T01:42:52.964Z,22.13
2022-08-24T01:44:54.985Z,23.23
2022-08-24T01:46:57.469Z,22.05
2022-08-24T01:48:59.517Z,24.35
2022-08-24T01:51:01.653Z,22.27
2022-08-24T01:53:06.199Z,23.48
2022-08-24T01:55:26.961Z,23.73
2022-08-24T01:57:29.431Z,22.70
2022-08-24T01:59:32.116Z,21.55
2022-08-24T02:01:38.343Z,22.88
2022-08-24T02:03:40.216Z,22.83
2022-08-24T02:05:42.076Z,21.92
2022-08-24T02:07:44.346Z,22.88
2022-08-24T02:09:47.066Z,23.23
2022-08-24T02:11:49.360Z,24.50
2022-08-24T02:13:51.360Z,22.95
2022-08-24T02:15:54.330Z,22.08
2022-08-24T02:17:57.050Z,22.58
2022-08-24T02:19:59.070Z,21.88
2022-08-24T02:22:01.207Z,22.17
2022-08-24T02:24:03.323Z,24.35
2022-08-24T02:26:06.004Z,22.23
2022-08-24T02:28:07.801Z,21.67
2022-08-24T02:30:10.073Z,21.52
2022-08-24T02:32:12.554Z,21.65
2022-08-24T02:34:14.727Z,21.27
2022-08-24T02:36:25.467Z,20.15
2022-08-24T02:38:28.856Z,20.95
2022-08-24T02:40:31.321Z,20.35
2022-08-24T02:42:33.160Z,21.38
2022-08-24T02:44:35.526Z,21.05
2022-08-24T02:46:37.325Z,20.45
2022-08-24T02:48:39.278Z,20.08
2022-08-24T02:50:44.151Z,20.38
2022-08-24T02:52:46.692Z,19.45
2022-08-24T02:54:48.488Z,19.88
2022-08-24T02:56:50.364Z,19.70
2022-08-24T02:58:54.228Z,19.08
2022-08-24T03:00:56.591Z,20.52
2022-08-24T03:02:58.873Z,19.23
2022-08-24T03:05:01.721Z,19.90
2022-08-24T03:07:04.173Z,19.17
2022-08-24T03:09:06.289Z,18.40
2022-08-24T03:11:08.420Z,18.27
2022-08-24T03:13:10.626Z,20.77
2022-08-24T03:15:12.945Z,20.15
2022-08-24T03:17:15.166Z,20.67
2022-08-24T03:19:20.462Z,19.60
2022-08-24T03:21:22.389Z,19.95
2022-08-24T03:23:25.014Z,20.08
2022-08-24T03:25:28.192Z,21.63
2022-08-24T03:27:30.576Z,20.63
2022-08-24T03:31:37.753Z,19.67
2022-08-24T03:33:39.736Z,20.98
2022-08-24T03:35:41.567Z,20.38
2022-08-24T03:37:43.603Z,19.70
2022-08-24T03:39:47.820Z,21.25
2022-08-24T03:41:49.693Z,20.02
2022-08-24T03:43:51.958Z,18.75
2022-08-24T03:45:54.366Z,18.00
2022-08-24T03:47:57.049Z,16.92
2022-08-24T03:49:58.785Z,17.33
2022-08-24T03:52:00.908Z,17.98
2022-08-24T03:54:04.335Z,18.10
2022-08-24T03:56:06.419Z,17.80
2022-08-24T03:58:09.607Z,17.38
2022-08-24T04:00:12.698Z,16.35
2022-08-24T04:02:14.829Z,18.88
2022-08-24T04:04:17.412Z,18.17
2022-08-24T04:06:20.634Z,17.52
2022-08-24T04:08:22.507Z,18.58
2022-08-24T04:10:24.251Z,16.63
2022-08-24T04:12:26.718Z,17.45
2022-08-24T04:14:29.166Z,16.27
2022-08-24T04:16:31.106Z,15.73
2022-08-24T04:18:32.990Z,16.45
2022-08-24T04:20:42.581Z,16.63
2022-08-24T04:22:44.719Z,15.57
2022-08-24T04:24:47.342Z,17.20
2022-08-24T04:26:49.139Z,16.35
2022-08-24T04:28:52.570Z,15.90
2022-08-24T04:30:54.302Z,16.08
2022-08-24T04:32:56.123Z,14.65
2022-08-24T04:34:59.364Z,14.98
2022-08-24T04:37:01.083Z,15.73
2022-08-24T04:39:03.355Z,14.52
2022-08-24T04:41:07.288Z,14.18
2022-08-24T04:43:09.313Z,13.10
2022-08-24T04:45:11.948Z,12.15
2022-08-24T04:47:14.004Z,11.32
2022-08-24T04:49:16.171Z,10.95
2022-08-24T04:51:19.079Z,10.93
2022-08-24T04:53:20.893Z,12.35
2022-08-24T04:55:22.640Z,11.68
2022-08-24T04:57:24.682Z,12.93
2022-08-24T04:59:26.450Z,14.20
2022-08-24T05:01:30.602Z,11.23
2022-08-24T05:03:32.975Z,11.88
2022-08-24T05:05:34.949Z,8.85
2022-08-24T05:07:37.705Z,9.50
2022-08-24T05:09:39.630Z,7.20
2022-08-24T05:11:41.441Z,8.48
2022-08-24T05:13:55.567Z,6.93
2022-08-24T05:15:57.534Z,6.35
2022-08-24T05:17:59.629Z,8.30
2022-08-24T05:20:01.458Z,7.90
2022-08-24T05:22:03.888Z,8.27
2022-08-24T05:24:06.046Z,6.60
2022-08-24T05:26:12.182Z,7.15
2022-08-24T05:28:13.943Z,7.43
2022-08-24T05:30:19.078Z,7.15
2022-08-24T05:32:21.236Z,8.02
2022-08-24T05:34:28.234Z,7.93
2022-08-24T05:36:38.124Z,8.98
2022-08-24T05:38:40.447Z,8.65
2022-08-24T05:40:42.335Z,9.05
2022-08-24T05:42:44.254Z,7.90
2022-08-24T05:44:46.842Z,7.32
2022-08-24T05:46:49.105Z,7.15
2022-08-24T05:48:52.937Z,6.85
2022-08-24T05:50:56.891Z,6.22
2022-08-24T05:55:00.891Z,6.25
2022-08-24T05:57:05.234Z,6.10
2022-08-24T05:59:07.487Z,5.97
2022-08-24T06:01:13.103Z,7.13
2022-08-24T06:03:15.772Z,6.60
2022-08-24T06:05:17.588Z,6.20
2022-08-24T06:07:19.505Z,6.57
2022-08-24T06:09:21.670Z,6.80
2022-08-24T06:11:32.961Z,6.03
2022-08-24T06:13:35.363Z,5.95
2022-08-24T06:15:45.640Z,6.50
2022-08-24T06:17:53.244Z,5.97
2022-08-24T06:19:55.794Z,6.50
2022-08-24T06:21:57.951Z,6.53
2022-08-24T06:24:00.903Z,7.22
2022-08-24T06:26:24.973Z,8.00
2022-08-24T06:28:27.276Z,7.82
2022-08-24T06:30:30.777Z,7.95
2022-08-24T06:34:34.501Z,8.10
2022-08-24T06:36:37.251Z,8.10
2022-08-24T06:38:46.937Z,8.07
2022-08-24T06:40:48.983Z,7.88
2022-08-24T06:42:50.783Z,7.40
2022-08-24T06:44:53.948Z,6.93
2022-08-24T06:46:56.154Z,5.82
2022-08-24T06:48:58.288Z,5.47
2022-08-24T06:51:00.731Z,6.03
2022-08-24T06:53:02.689Z,6.20
2022-08-24T06:55:06.283Z,6.50
2022-08-24T06:59:10.230Z,6.72
2022-08-24T07:01:20.748Z,6.43
2022-08-24T07:03:23.313Z,6.22
2022-08-24T07:05:25.031Z,6.25
2022-08-24T07:07:27.154Z,6.18
2022-08-24T07:09:31.840Z,6.05
2022-08-24T07:11:35.314Z,5.93
2022-08-24T07:15:39.708Z,11.75
2022-08-24T07:17:44.625Z,5.45
2022-08-24T07:19:46.971Z,5.50
2022-08-24T07:21:48.905Z,5.40
2022-08-24T07:23:54.386Z,4.60
2022-08-24T07:25:56.240Z,4.95
2022-08-24T07:28:01.063Z,5.10
2022-08-24T07:30:25.903Z,5.00
2022-08-24T07:32:25.095Z,5.80
2022-08-24T07:34:27.217Z,5.15
2022-08-24T07:36:29.352Z,5.60
2022-08-24T07:38:31.177Z,8.63
2022-08-24T07:40:48.787Z,7.82
2022-08-24T07:42:58.224Z,8.43
2022-08-24T07:45:00.779Z,5.63
2022-08-24T07:47:15.371Z,5.80
2022-08-24T07:49:37.196Z,6.07
2022-08-24T07:51:44.879Z,5.07
2022-08-24T07:53:53.908Z,6.22
2022-08-24T07:55:57.169Z,5.50
2022-08-24T07:57:59.713Z,5.30
2022-08-24T08:00:04.918Z,6.15
2022-08-24T08:02:08.338Z,6.13
2022-08-24T08:04:10.353Z,5.35
2022-08-24T08:06:16.012Z,5.72
2022-08-24T08:08:20.438Z,5.72
2022-08-24T08:10:23.532Z,5.90
2022-08-24T08:12:25.823Z,5.40
2022-08-24T08:14:27.671Z,5.05
2022-08-24T08:16:29.550Z,5.50
2022-08-24T08:18:32.264Z,5.68
2022-08-24T08:20:34.820Z,5.72
2022-08-24T08:22:55.069Z,5.53
2022-08-24T08:24:56.782Z,5.40
2022-08-24T08:26:59.403Z,6.28
2022-08-24T08:29:02.260Z,6.23
2022-08-24T08:31:06.365Z,5.40
2022-08-24T08:33:08.494Z,5.63
2022-08-24T08:35:10.872Z,5.40
2022-08-24T08:37:13.335Z,5.22
2022-08-24T08:39:16.351Z,5.35
2022-08-24T08:41:18.868Z,5.43
2022-08-24T08:43:55.879Z,4.43
2022-08-24T08:46:13.158Z,4.80
2022-08-24T08:48:43.661Z,4.78
2022-08-24T08:50:52.588Z,5.20
2022-08-24T08:53:06.803Z,5.43
2022-08-24T08:55:38.795Z,5.55
2022-08-24T08:58:23.625Z,5.70
2022-08-24T09:01:05.615Z,5.22
2022-08-24T09:03:34.665Z,5.22
2022-08-24T09:05:59.045Z,5.28
2022-08-24T09:08:36.192Z,3.70
2022-08-24T09:10:44.863Z,4.30
2022-08-24T09:13:12.242Z,4.25
2022-08-24T09:15:45.402Z,4.50
2022-08-24T09:18:10.282Z,4.13
2022-08-24T09:20:33.822Z,5.38
2022-08-24T09:22:40.193Z,11.50
2022-08-24T09:25:16.407Z,21.23
2022-08-24T09:27:25.284Z,16.88
2022-08-24T09:30:19.270Z,9.40
2022-08-24T09:32:45.812Z,10.02
2022-08-24T09:35:09.908Z,4.68
2022-08-24T09:37:33.354Z,4.65
2022-08-24T09:40:12.840Z,4.30
2022-08-24T09:42:20.649Z,4.10
2022-08-24T09:44:26.104Z,4.55
2022-08-24T09:46:59.735Z,4.40
2022-08-24T09:49:28.576Z,4.07
2022-08-24T09:52:00.855Z,4.30
2022-08-24T09:54:18.243Z,4.05
2022-08-24T09:56:29.552Z,4.50
2022-08-24T09:59:02.830Z,4.03
2022-08-24T10:01:09.066Z,4.53
2022-08-24T10:03:41.897Z,4.60
2022-08-24T10:06:05.360Z,4.10
2022-08-24T10:08:32.105Z,4.10
2022-08-24T10:11:01.398Z,4.22
2022-08-24T10:13:42.032Z,4.60
2022-08-24T10:16:33.932Z,4.43
2022-08-24T10:18:35.798Z,4.40
2022-08-24T10:20:58.336Z,4.47
2022-08-24T10:23:11.019Z,4.68
2022-08-24T10:25:21.991Z,3.88
2022-08-24T10:27:39.941Z,4.32
2022-08-24T10:30:00.971Z,4.07
2022-08-24T10:32:15.944Z,3.67
2022-08-24T10:34:37.382Z,4.75
2022-08-24T10:36:50.108Z,4.53
2022-08-24T10:39:26.006Z,4.53
2022-08-24T10:41:55.603Z,4.43
2022-08-24T10:44:09.470Z,4.43
2022-08-24T10:46:32.564Z,4.40
2022-08-24T10:48:34.617Z,4.00
2022-08-24T10:51:44.196Z,4.25
2022-08-24T10:53:51.299Z,4.50
2022-08-24T10:56:16.128Z,4.22
2022-08-24T10:58:45.329Z,4.32
2022-08-24T11:00:47.371Z,4.40
2022-08-24T11:02:49.981Z,4.53
2022-08-24T11:04:58.119Z,4.10
2022-08-24T11:07:11.935Z,4.40
2022-08-24T11:11:47.423Z,4.57
2022-08-24T11:13:59.067Z,4.55
2022-08-24T11:16:04.239Z,4.50
2022-08-24T11:18:06.091Z,4.40
2022-08-24T11:20:27.709Z,4.57
2022-08-24T11:23:06.974Z,4.40
2022-08-24T11:25:27.349Z,4.38
2022-08-24T11:27:39.095Z,4.05
2022-08-24T11:29:49.735Z,4.78
2022-08-24T11:31:52.991Z,4.70
2022-08-24T11:34:04.943Z,4.18
2022-08-24T11:36:21.029Z,4.43
2022-08-24T11:38:27.460Z,4.80
2022-08-24T11:40:31.556Z,4.45
2022-08-24T11:43:03.702Z,4.80
2022-08-24T11:45:35.033Z,4.53
2022-08-24T11:47:52.013Z,4.43
2022-08-24T11:50:13.325Z,3.80
2022-08-24T11:52:25.383Z,4.82
2022-08-24T11:54:42.652Z,4.60
2022-08-24T11:57:08.582Z,4.90
2022-08-24T11:59:15.524Z,4.30
2022-08-24T12:01:27.987Z,4.57
2022-08-24T12:03:52.326Z,4.78
2022-08-24T12:06:19.856Z,4.60
2022-08-24T12:08:34.207Z,4.57
2022-08-24T12:10:56.615Z,4.35
2022-08-24T12:13:24.428Z,4.60
2022-08-24T12:15:37.987Z,4.95
2022-08-24T12:17:47.960Z,4.63
2022-08-24T12:19:53.295Z,4.93
2022-08-24T12:21:59.087Z,4.10
2022-08-24T12:24:05.867Z,5.45
2022-08-24T12:26:33.644Z,4.75
2022-08-24T12:28:42.357Z,4.78
2022-08-24T12:30:44.990Z,4.60
2022-08-24T12:32:58.071Z,4.90
2022-08-24T12:35:06.080Z,5.20
2022-08-24T12:37:10.713Z,7.00
2022-08-24T12:39:29.156Z,6.60
2022-08-24T12:41:38.598Z,5.68
2022-08-24T12:43:45.571Z,5.38
2022-08-24T12:45:48.572Z,4.93
2022-08-24T12:48:03.936Z,6.10
2022-08-24T12:50:25.007Z,6.25
2022-08-24T12:52:41.862Z,5.05
2022-08-24T12:55:29.093Z,5.90
2022-08-24T12:57:53.109Z,5.90
2022-08-24T13:00:07.501Z,5.55
2022-08-24T13:02:18.008Z,6.05
2022-08-24T13:04:38.683Z,6.10
2022-08-24T13:06:44.761Z,5.10
2022-08-24T13:08:50.743Z,5.13
2022-08-24T13:11:00.157Z,5.72
2022-08-24T13:13:04.470Z,5.47
2022-08-24T13:15:28.534Z,5.30
2022-08-24T13:17:41.804Z,5.35
2022-08-24T13:19:46.208Z,5.30
2022-08-24T13:21:58.694Z,5.40
2022-08-24T13:24:28.214Z,5.68
2022-08-24T13:26:32.569Z,5.60
2022-08-24T13:28:49.327Z,5.97
2022-08-24T13:31:06.644Z,5.65
2022-08-24T13:33:10.842Z,6.05
2022-08-24T13:35:40.964Z,5.60
2022-08-24T13:37:43.183Z,5.70
2022-08-24T13:40:15.541Z,5.70
2022-08-24T13:42:21.780Z,5.53
2022-08-24T13:44:47.557Z,6.03
2022-08-24T13:46:57.087Z,5.53
2022-08-24T13:49:04.309Z,6.00
2022-08-24T13:51:20.649Z,6.15
2022-08-24T13:53:52.862Z,5.93
2022-08-24T13:56:12.276Z,5.80
2022-08-24T13:58:16.812Z,6.22
2022-08-24T14:00:40.783Z,6.18
2022-08-24T14:02:58.133Z,5.70
2022-08-24T14:05:22.390Z,6.35
2022-08-24T14:07:29.507Z,6.30
2022-08-24T14:09:50.605Z,6.03
2022-08-24T14:12:01.537Z,5.85
2022-08-24T14:14:11.476Z,5.55
2022-08-24T14:17:14.425Z,6.30
2022-08-24T14:19:39.070Z,5.95
2022-08-24T14:21:55.573Z,6.00
2022-08-24T14:24:09.247Z,5.85
2022-08-24T14:26:40.892Z,6.60
2022-08-24T14:28:43.914Z,5.47
2022-08-24T14:30:46.988Z,5.70
2022-08-24T14:33:20.365Z,6.03
2022-08-24T14:35:42.494Z,5.82
2022-08-24T14:38:10.637Z,6.15
2022-08-24T14:40:37.325Z,6.13
2022-08-24T14:42:59.064Z,5.75
2022-08-24T14:45:10.685Z,6.28
2022-08-24T14:47:47.698Z,5.90
2022-08-24T14:50:09.160Z,5.80
2022-08-24T14:52:30.691Z,6.57
2022-08-24T14:54:56.144Z,6.13
2022-08-24T14:57:18.623Z,5.82
2022-08-24T14:59:23.253Z,5.80
2022-08-24T15:01:39.281Z,6.15
2022-08-24T15:04:02.088Z,5.45
2022-08-24T15:06:26.760Z,6.13
2022-08-24T15:08:42.985Z,5.88
2022-08-24T15:10:50.622Z,6.30
2022-08-24T15:13:04.251Z,5.53
2022-08-24T15:15:15.483Z,6.05
2022-08-24T15:17:20.678Z,6.63
2022-08-24T15:19:45.078Z,6.30
2022-08-24T15:22:02.351Z,5.90
2022-08-24T15:24:16.779Z,6.20
2022-08-24T15:26:49.521Z,6.65
2022-08-24T15:28:56.593Z,5.97
2022-08-24T15:31:00.359Z,6.82
2022-08-24T15:35:07.555Z,6.18
2022-08-24T15:37:10.117Z,7.32
2022-08-24T15:39:26.588Z,6.90
2022-08-24T15:41:34.824Z,6.63
2022-08-24T15:43:43.105Z,6.88
2022-08-24T15:45:49.545Z,6.40
2022-08-24T15:47:53.200Z,6.90
2022-08-24T15:49:58.224Z,6.80
2022-08-24T15:52:07.319Z,7.30
2022-08-24T15:54:25.552Z,7.10
2022-08-24T15:56:36.131Z,6.70
2022-08-24T15:58:41.710Z,8.00
2022-08-24T16:01:02.477Z,6.53
2022-08-24T16:03:25.029Z,7.50
2022-08-24T16:05:27.340Z,7.75
2022-08-24T16:07:54.109Z,6.90
2022-08-24T16:10:09.566Z,6.35
2022-08-24T16:12:22.983Z,7.05
2022-08-24T16:14:31.756Z,6.93
2022-08-24T16:16:38.451Z,6.63
2022-08-24T16:18:55.385Z,6.55
2022-08-24T16:20:58.978Z,7.15
2022-08-24T16:23:06.907Z,6.95
2022-08-24T16:25:17.541Z,6.32
2022-08-24T16:27:19.677Z,7.07
2022-08-24T16:29:37.750Z,8.38
2022-08-24T16:31:51.997Z,6.43
2022-08-24T16:34:10.850Z,7.13
2022-08-24T16:36:18.099Z,7.55
2022-08-24T16:38:20.199Z,6.90
2022-08-24T16:40:25.790Z,7.03
2022-08-24T16:42:29.438Z,7.25
2022-08-24T16:44:40.555Z,7.32
2022-08-24T16:46:42.390Z,8.23
2022-08-24T16:48:50.091Z,9.05
2022-08-24T16:50:53.120Z,7.82
2022-08-24T16:52:55.130Z,7.63
2022-08-24T16:54:57.732Z,7.55
2022-08-24T16:57:01.983Z,7.23
2022-08-24T16:59:04.252Z,7.70
2022-08-24T17:01:06.421Z,8.07
2022-08-24T17:03:12.843Z,7.93
2022-08-24T17:05:18.103Z,7.03
2022-08-24T17:07:24.084Z,7.85
2022-08-24T17:09:25.840Z,7.47
2022-08-24T17:11:27.833Z,7.82
2022-08-24T17:15:53.836Z,6.93
2022-08-24T17:18:01.544Z,6.88
2022-08-24T17:20:05.324Z,8.20
2022-08-24T17:22:07.111Z,7.20
2022-08-24T17:24:10.349Z,7.72
2022-08-24T17:26:20.991Z,7.88
2022-08-24T17:28:23.703Z,7.50
2022-08-24T17:30:26.186Z,7.55
2022-08-24T17:32:32.368Z,7.85
2022-08-24T17:34:34.915Z,8.18
2022-08-24T17:36:37.255Z,8.15
2022-08-24T17:38:52.924Z,8.52
2022-08-24T17:40:56.723Z,8.70
2022-08-24T17:42:59.174Z,8.60
2022-08-24T17:45:01.014Z,7.90
2022-08-24T17:47:04.256Z,7.68
2022-08-24T17:49:07.119Z,8.07
2022-08-24T17:51:08.976Z,8.68
2022-08-24T17:53:11.503Z,8.52
2022-08-24T17:55:14.842Z,8.50
2022-08-24T17:57:17.861Z,8.57
2022-08-24T17:59:28.872Z,8.63
2022-08-24T18:01:30.884Z,8.45
2022-08-24T18:03:32.757Z,8.98
2022-08-24T18:05:36.359Z,8.63
2022-08-24T18:10:00.438Z,8.85
2022-08-24T18:12:02.950Z,8.93
2022-08-24T18:14:04.615Z,9.57
2022-08-24T18:16:10.179Z,9.15
2022-08-24T18:18:13.237Z,8.57
2022-08-24T18:20:17.012Z,9.15
2022-08-24T18:22:19.751Z,9.10
2022-08-24T18:24:22.120Z,8.90
2022-08-24T18:26:28.107Z,8.68
2022-08-24T18:28:30.160Z,8.30
2022-08-24T18:30:32.335Z,9.82
2022-08-24T18:32:39.746Z,9.85
2022-08-24T18:34:42.137Z,11.27
2022-08-24T18:36:44.032Z,10.77
2022-08-24T18:38:45.941Z,9.35
2022-08-24T18:40:52.942Z,10.07
2022-08-24T18:42:57.075Z,9.85
2022-08-24T18:45:03.606Z,9.32
2022-08-24T18:47:05.917Z,10.27
2022-08-24T18:49:08.250Z,9.85
2022-08-24T18:51:10.925Z,8.68
2022-08-24T18:53:13.536Z,8.47
2022-08-24T18:55:15.564Z,8.85
2022-08-24T18:57:18.255Z,9.18
2022-08-24T18:59:21.413Z,8.95
2022-08-24T19:01:23.550Z,9.73
2022-08-24T19:03:26.364Z,10.13
2022-08-24T19:05:28.155Z,10.23
2022-08-24T19:07:32.341Z,10.57
2022-08-24T19:09:34.574Z,10.70
2022-08-24T19:11:37.498Z,10.07
2022-08-24T19:13:40.121Z,9.98
2022-08-24T19:15:42.901Z,9.80
2022-08-24T19:17:44.949Z,10.60
2022-08-24T19:19:49.541Z,10.57
2022-08-24T19:21:51.392Z,9.75
2022-08-24T19:23:54.958Z,9.93
2022-08-24T19:27:59.008Z,10.73
2022-08-24T19:30:01.201Z,9.90
2022-08-24T19:32:03.662Z,10.38
2022-08-24T19:34:07.004Z,10.60
2022-08-24T19:36:09.481Z,10.45
2022-08-24T19:38:11.513Z,10.45
2022-08-24T19:40:14.238Z,10.23
2022-08-24T19:42:16.989Z,10.38
2022-08-24T19:44:38.602Z,10.80
2022-08-24T19:46:40.372Z,10.32
2022-08-24T19:48:44.416Z,9.45
2022-08-24T19:50:46.361Z,10.07
2022-08-24T19:52:48.697Z,9.43
2022-08-24T19:54:50.610Z,9.23
2022-08-24T19:57:01.806Z,8.73
2022-08-24T19:59:18.566Z,9.43
2022-08-24T20:01:24.294Z,8.95
2022-08-24T20:03:29.495Z,8.60
2022-08-24T20:05:32.250Z,8.95
2022-08-24T20:07:34.485Z,8.68
2022-08-24T20:09:36.449Z,8.15
2022-08-24T20:11:39.613Z,9.30
2022-08-24T20:13:41.487Z,8.95
2022-08-24T20:15:43.737Z,8.65
2022-08-24T20:17:45.971Z,9.10
2022-08-24T20:19:47.910Z,8.68
2022-08-24T20:21:49.690Z,7.40
2022-08-24T20:23:51.641Z,8.35
2022-08-24T20:25:54.202Z,8.40
2022-08-24T20:28:12.557Z,8.52
2022-08-24T20:30:18.959Z,8.18
2022-08-24T20:32:21.556Z,8.93
2022-08-24T20:34:23.694Z,8.25
2022-08-24T20:36:30.617Z,8.35
2022-08-24T20:38:34.042Z,8.00
2022-08-24T20:40:36.124Z,8.40
2022-08-24T20:42:38.796Z,8.75
2022-08-24T20:44:41.063Z,8.07
2022-08-24T20:46:46.748Z,8.80
2022-08-24T20:48:55.367Z,8.30
2022-08-24T20:50:58.120Z,7.07
2022-08-24T20:53:00.153Z,8.45
2022-08-24T20:55:05.193Z,8.00
2022-08-24T20:57:08.832Z,7.85
2022-08-24T20:59:12.512Z,9.10
2022-08-24T21:01:14.361Z,8.75
2022-08-24T21:03:18.924Z,9.27
2022-08-24T21:05:21.386Z,8.85
2022-08-24T21:07:23.478Z,9.07
2022-08-24T21:09:25.795Z,8.98
2022-08-24T21:11:27.605Z,9.10
2022-08-24T21:13:30.107Z,8.77
2022-08-24T21:15:33.613Z,9.65
2022-08-24T21:21:47.056Z,9.00
2022-08-24T21:23:49.169Z,8.95
2022-08-24T21:25:52.213Z,8.98
2022-08-24T21:27:53.996Z,8.93
2022-08-24T21:29:56.235Z,8.35
2022-08-24T21:32:16.529Z,8.35
2022-08-24T21:34:36.979Z,9.32
2022-08-24T21:36:39.236Z,9.40
2022-08-24T21:38:41.438Z,8.68
2022-08-24T21:40:47.290Z,8.85
2022-08-24T21:42:52.801Z,8.57
2022-08-24T21:44:58.295Z,8.43
2022-08-24T21:47:01.647Z,9.43
2022-08-24T21:49:04.123Z,9.25
2022-08-24T21:54:30.388Z,9.07
2022-08-24T21:56:32.976Z,9.00
2022-08-24T21:58:42.520Z,9.05
2022-08-24T22:00:47.891Z,9.43
2022-08-24T22:02:50.274Z,9.02
2022-08-24T22:04:56.929Z,8.43
2022-08-24T22:07:02.597Z,9.15
2022-08-24T22:09:05.838Z,8.95
2022-08-24T22:11:12.567Z,9.65
2022-08-24T22:13:18.076Z,9.07
2022-08-24T22:15:23.456Z,9.40
2022-08-24T22:17:26.016Z,9.55
2022-08-24T22:19:28.479Z,9.90
2022-08-24T22:21:31.550Z,10.02
2022-08-24T22:23:39.063Z,10.32
2022-08-24T22:25:52.061Z,9.50
2022-08-24T22:27:54.374Z,9.88
2022-08-24T22:29:57.908Z,10.52
2022-08-24T22:34:05.456Z,9.18
2022-08-24T22:36:10.907Z,9.40
2022-08-24T22:38:13.718Z,9.60
2022-08-24T22:40:15.978Z,9.43
2022-08-24T22:42:24.509Z,9.27
2022-08-24T22:44:27.826Z,9.30
2022-08-24T22:46:29.707Z,9.63
2022-08-24T22:48:32.070Z,8.80
2022-08-24T22:50:33.929Z,9.40
2022-08-24T22:52:35.790Z,8.98
2022-08-24T22:54:38.327Z,9.30
2022-08-24T22:56:53.640Z,9.23
2022-08-24T22:58:56.661Z,9.45
2022-08-24T23:00:59.086Z,9.52
2022-08-24T23:03:13.921Z,8.95
2022-08-24T23:05:21.790Z,9.00
2022-08-24T23:07:23.543Z,9.55
2022-08-24T23:09:26.136Z,10.35
2022-08-24T23:11:29.704Z,10.13
2022-08-24T23:13:32.240Z,9.25
2022-08-24T23:15:34.070Z,9.15
2022-08-24T23:17:36.336Z,8.93
2022-08-24T23:20:22.977Z,9.23
2022-08-24T23:22:25.732Z,9.90
2022-08-24T23:24:28.370Z,9.48
2022-08-24T23:26:32.746Z,9.30
2022-08-24T23:28:35.146Z,9.73
2022-08-24T23:30:38.260Z,9.30
2022-08-24T23:32:40.465Z,9.95
2022-08-24T23:34:42.475Z,9.32
2022-08-24T23:36:44.880Z,9.95
2022-08-24T23:38:47.496Z,8.90
2022-08-24T23:40:49.483Z,9.95
2022-08-24T23:42:51.852Z,9.43
2022-08-24T23:44:54.544Z,9.02
2022-08-24T23:46:58.348Z,9.02
2022-08-24T23:49:03.505Z,8.65
2022-08-24T23:51:10.275Z,8.75
2022-08-24T23:53:12.210Z,8.60
2022-08-24T23:55:22.003Z,9.25
2022-08-24T23:57:24.081Z,9.35
2022-08-24T23:59:28.032Z,9.30
